Latest Weather Observations for Hay Airport

IDN60801

Issued at 10:32 pm EST Wednesday 20 September 2017 (issued every 30 minutes, with the page automatically refreshed every 10 minutes)

About weather observations | Map of weather stations | Latest weather observations for NSW | Other Formats
Station Details ID: 075019 Name: HAY AIRPORT AWS Lat: -34.54 Lon: 144.83 Height: 92.0 m
Data from the previous 72 hours. | See also: Recent months at Hay Airport
Date/Time
EST
Temp
°C
App
Temp
°C
Dew
Point
°C
Rel
Hum
%
Delta-T
°C
Wind Press
QNH
hPa
Press
MSL
hPa
Rain since
9am
mm
Dir  Spd
km/h
Gust
km/h
Spd
kts
Gust
kts
20/10:30pm 9.7 5.2 -0.2 50 4.0 NE 13 15 7 8 1017.2 1017.2 0.0
20/10:00pm 11.4 7.7 -0.1 45 4.7 NE 9 11 5 6 1017.4 1017.4 0.0
20/09:30pm 11.6 7.9 -0.2 44 4.8 NE 9 11 5 6 1017.7 1017.7 0.0
20/09:00pm 9.8 5.6 -0.7 48 4.2 NE 11 13 6 7 1017.9 1017.9 0.0
20/08:30pm 9.7 6.0 0.1 51 3.9 ENE 9 11 5 6 1018.0 1018.0 0.0
20/08:00pm 10.4 6.6 -0.4 47 4.3 ENE 9 9 5 5 1018.0 1018.0 0.0
20/07:30pm 11.6 8.3 -0.2 44 4.8 ENE 7 9 4 5 1017.8 1017.8 0.0
20/07:00pm 14.8 11.6 1.0 39 6.0 ENE 7 9 4 5 1017.6 1017.6 0.0
20/06:30pm 14.9 12.9 0.0 36 6.3 CALM 0 0 0 0 1017.6 1017.6 0.0
20/06:00pm 17.7 15.8 0.4 31 7.6 CALM 0 0 0 0 1017.4 1017.4 0.0
20/05:30pm 19.0 16.3 0.6 29 8.2 NE 4 9 2 5 1017.4 1017.4 0.0
20/05:00pm 19.9 16.6 0.4 27 8.7 N 7 11 4 6 1017.3 1017.3 0.0
20/04:30pm 20.1 16.5 0.5 27 8.8 NNE 9 13 5 7 1017.5 1017.5 0.0
20/04:00pm 20.2 16.4 -0.4 25 9.1 N 9 15 5 8 1017.7 1017.7 0.0
20/03:30pm 21.1 18.0 0.3 25 9.4 N 6 15 3 8 1017.9 1017.9 0.0
20/03:00pm 20.1 16.4 0.0 26 8.9 N 9 13 5 7 1018.0 1018.0 0.0
20/02:30pm 20.3 17.0 0.2 26 9.0 WSW 7 15 4 8 1018.4 1018.4 0.0
20/02:00pm 19.9 17.3 0.9 28 8.6 N 4 11 2 6 1018.8 1018.8 0.0
20/01:30pm 19.4 15.5 0.9 29 8.3 WNW 11 19 6 10 1019.3 1019.3 0.0
20/01:00pm 18.8 15.7 1.3 31 7.9 N 7 13 4 7 1019.8 1019.8 0.0
20/12:30pm 19.0 16.9 2.0 32 7.8 WNW 2 9 1 5 1020.2 1020.2 0.0
20/12:00pm 17.5 15.1 1.9 35 7.0 SW 4 11 2 6 1020.6 1020.6 0.0
20/11:30am 16.8 13.0 1.7 36 6.7 WSW 11 17 6 9 1021.3 1021.3 0.0
20/11:00am 16.0 13.2 2.1 39 6.2 ESE 6 11 3 6 1021.8 1021.8 0.0
20/10:30am 15.7 13.3 2.2 40 6.0 SSW 4 11 2 6 1022.3 1022.3 0.0
20/10:00am 15.3 12.5 2.1 41 5.8 SSW 6 9 3 5 1022.6 1022.5 0.0
20/09:30am 14.6 11.6 2.2 43 5.5 NNW 7 11 4 6 1023.0 1022.9 0.0
20/09:00am 13.8 11.0 2.1 45 5.1 E 6 9 3 5 1023.3 1023.2 0.0
20/08:30am 12.3 9.6 2.7 52 4.2 E 6 9 3 5 1023.2 1023.1 0.0
20/08:00am 10.3 9.0 4.2 66 2.7 CALM 0 0 0 0 1023.2 1023.1 0.0
20/07:30am 6.1 4.9 4.4 89 0.7 CALM 0 0 0 0 1023.2 1023.1 0.0
20/07:00am 2.8 1.2 2.2 96 0.2 CALM 0 0 0 0 1023.0 1022.9 0.0
20/06:30am 1.1 -0.9 0.2 94 0.3 CALM 0 0 0 0 1022.8 1022.7 0.0
20/06:00am 2.2 0.4 1.5 95 0.3 CALM 0 0 0 0 1022.4 1022.4 0.0
20/05:30am 1.8 0.0 0.9 94 0.3 CALM 0 0 0 0 1022.1 1022.1 0.0
20/05:00am 1.8 0.0 0.9 94 0.3 CALM 0 0 0 0 1021.9 1021.9 0.0
20/04:30am 2.0 0.2 1.3 95 0.3 CALM 0 0 0 0 1021.6 1021.6 0.0
20/04:00am 1.5 -0.5 -0.4 87 0.7 CALM 0 0 0 0 1021.7 1021.7 0.0
20/03:30am 2.0 0.0 -0.4 84 0.9 CALM 0 0 0 0 1021.5 1021.5 0.0
20/03:00am 2.5 0.6 0.6 87 0.7 CALM 0 0 0 0 1021.7 1021.7 0.0
20/02:30am 2.2 0.1 -0.7 81 1.1 CALM 0 0 0 0 1022.0 1022.0 0.0
20/02:00am 2.7 0.8 0.4 85 0.9 CALM 0 0 0 0 1022.2 1022.2 0.0
20/01:30am 3.2 0.8 -0.1 79 1.2 SW 2 6 1 3 1022.6 1022.5 0.0
20/01:00am 3.9 0.7 0.8 80 1.2 WSW 7 7 4 4 1022.7 1022.6 0.0
20/12:30am 3.8 1.1 0.5 79 1.3 WSW 4 7 2 4 1022.9 1022.8 0.0
20/12:00am 3.3 0.6 0.4 81 1.1 WNW 4 6 2 3 1023.0 1022.9 0.0
 
Date/Time
EST
Temp
°C
App
Temp
°C
Dew
Point
°C
Rel
Hum
%
Delta-T
°C
Wind Press
QNH
hPa
Press
MSL
hPa
Rain since
9am
mm
Dir  Spd
km/h
Gust
km/h
Spd
kts
Gust
kts
19/11:30pm 2.9 -0.3 -0.4 79 1.2 W 6 7 3 4 1023.0 1022.9 0.0
19/11:00pm 3.6 0.8 -0.4 75 1.5 WSW 4 7 2 4 1022.9 1022.8 0.0
19/10:30pm 5.1 1.5 0.7 73 1.7 SW 9 13 5 7 1023.2 1023.1 0.0
19/10:00pm 4.7 1.4 0.3 73 1.7 SW 7 9 4 5 1023.4 1023.3 0.0
19/09:30pm 5.2 1.5 -0.2 68 2.1 SW 9 15 5 8 1023.5 1023.4 0.0
19/09:00pm 5.9 1.8 0.0 66 2.3 SW 11 13 6 7 1023.2 1023.1 0.0
19/08:30pm 7.7 3.4 0.7 61 2.8 SW 13 17 7 9 1023.0 1022.9 0.0
19/08:00pm 7.8 3.4 0.5 60 2.9 SW 13 15 7 8 1022.7 1022.6 0.0
19/07:30pm 8.4 4.3 0.1 56 3.3 SW 11 15 6 8 1022.3 1022.3 0.0
19/07:00pm 9.7 5.7 0.3 52 3.8 SW 11 13 6 7 1022.1 1022.1 0.0
19/06:30pm 12.0 7.3 0.8 46 4.7 SW 15 19 8 10 1021.9 1021.9 0.0
19/06:00pm 13.9 8.4 0.5 40 5.7 SW 19 28 10 15 1021.8 1021.8 0.0
19/05:30pm 15.4 9.7 0.8 37 6.3 SW 20 28 11 15 1021.5 1021.5 0.0
19/05:00pm 16.0 9.9 0.2 34 6.8 SW 22 32 12 17 1021.3 1021.3 0.0
19/04:30pm 16.4 9.9 0.1 33 7.0 SW 24 35 13 19 1021.1 1021.1 0.0
19/04:00pm 17.0 10.2 0.6 33 7.1 SW 26 35 14 19 1020.9 1020.9 0.0
19/03:30pm 16.8 9.6 0.5 33 7.1 SW 28 41 15 22 1021.0 1021.0 0.0
19/03:00pm 17.3 10.9 0.9 33 7.2 WSW 24 33 13 18 1021.1 1021.1 0.0
19/02:30pm 17.1 10.3 0.7 33 7.2 SW 26 37 14 20 1021.3 1021.3 0.0
19/02:00pm 17.0 10.2 1.0 34 7.0 WSW 26 37 14 20 1021.4 1021.4 0.0
19/01:30pm 16.9 9.7 1.0 34 7.0 SW 28 41 15 22 1021.5 1021.5 0.0
19/01:01pm 16.4 9.3 1.3 36 6.7 SW 28 46 15 25 1021.6 1021.6 0.0
19/01:00pm 16.4 9.7 1.7 37 6.5 SW 26 46 14 25 1021.6 1021.6 0.0
19/12:30pm 16.3 9.2 1.2 36 6.6 SW 28 37 15 20 1022.0 1022.0 0.0
19/12:00pm 16.5 9.5 2.2 38 6.4 SW 28 37 15 20 1022.0 1022.0 0.0
19/11:30am 15.9 8.7 0.9 36 6.5 SW 28 41 15 22 1022.2 1022.2 0.0
19/11:00am 15.3 7.8 1.1 38 6.2 SW 30 41 16 22 1022.3 1022.3 0.0
19/10:30am 15.2 8.4 3.0 44 5.5 SW 28 41 15 22 1022.6 1022.5 0.0
19/10:00am 14.0 7.1 2.6 46 5.0 SW 28 43 15 23 1022.6 1022.5 0.0
19/09:30am 12.9 5.5 3.8 54 4.1 WSW 32 39 17 21 1022.6 1022.5 0.0
19/09:00am 11.9 4.6 4.6 61 3.3 WSW 32 41 17 22 1022.6 1022.5 0.0
19/08:30am 10.7 4.0 5.5 70 2.4 WSW 30 41 16 22 1022.4 1022.4 0.0
19/08:00am 9.1 2.8 5.7 79 1.5 WSW 28 33 15 18 1021.9 1021.9 0.0
19/07:30am 7.4 1.7 4.9 84 1.1 WSW 24 32 13 17 1021.3 1021.3 0.0
19/07:00am 6.6 1.3 4.8 88 0.8 W 22 28 12 15 1020.9 1020.9 0.0
19/06:30am 5.8 0.7 4.3 90 0.6 W 20 24 11 13 1020.4 1020.4 0.0
19/06:00am 5.6 0.7 3.9 89 0.7 W 19 22 10 12 1020.0 1020.0 0.0
19/05:30am 5.5 0.9 3.8 89 0.7 W 17 20 9 11 1019.6 1019.6 0.0
19/05:00am 5.5 0.9 3.7 88 0.8 W 17 24 9 13 1019.4 1019.4 0.0
19/04:30am 6.0 0.9 4.0 87 0.9 W 20 26 11 14 1018.9 1018.9 0.0
19/04:00am 6.1 1.2 3.9 86 0.9 WSW 19 24 10 13 1018.5 1018.5 0.0
19/03:30am 6.0 1.0 3.8 86 0.9 W 19 22 10 12 1018.3 1018.3 0.0
19/03:00am 6.9 2.1 4.6 85 1.0 W 19 24 10 13 1018.1 1018.1 0.0
19/02:30am 7.0 2.9 4.5 84 1.1 W 15 20 8 11 1018.1 1018.1 0.0
19/02:00am 7.8 3.8 5.1 83 1.2 W 15 19 8 10 1017.9 1017.9 0.0
19/01:30am 9.0 3.8 5.6 79 1.5 WSW 22 32 12 17 1017.8 1017.8 0.0
19/01:00am 10.0 4.7 6.7 80 1.6 WSW 24 30 13 16 1017.5 1017.5 0.0
19/12:30am 10.2 5.0 7.4 83 1.3 SW 24 33 13 18 1016.6 1016.6 0.0
19/12:00am 10.9 5.9 6.6 75 2.0 SW 22 30 12 16 1016.9 1016.9 0.0
 
Date/Time
EST
Temp
°C
App
Temp
°C
Dew
Point
°C
Rel
Hum
%
Delta-T
°C
Wind Press
QNH
hPa
Press
MSL
hPa
Rain since
9am
mm
Dir  Spd
km/h
Gust
km/h
Spd
kts
Gust
kts
18/11:30pm 11.3 4.4 6.4 72 2.3 SW 32 44 17 24 1017.0 1017.0 0.0
18/11:00pm 12.5 4.7 5.0 60 3.5 WSW 35 46 19 25 1017.3 1017.3 0.0
18/10:30pm 13.1 5.7 4.8 57 3.8 SW 33 48 18 26 1016.6 1016.6 0.0
18/10:00pm 13.9 6.3 5.8 58 3.9 WSW 35 54 19 29 1016.6 1016.6 0.0
18/09:52pm 14.1 7.5 6.2 59 3.8 WSW 30 48 16 26 1016.6 1016.6 0.0
18/09:30pm 14.7 5.2 6.5 58 4.0 WSW 46 63 25 34 1016.2 1016.2 0.0
18/09:22pm 15.3 6.9 7.3 59 4.0 WSW 41 63 22 34 1016.0 1016.0 0.0
18/09:00pm 15.9 7.7 8.4 61 3.8 SW 41 56 22 30 1015.8 1015.8 0.0
18/08:32pm 16.7 8.0 7.6 55 4.6 WSW 43 61 23 33 1015.0 1014.9 0.0
18/08:30pm 16.7 7.4 7.6 55 4.6 WSW 46 61 25 33 1014.9 1014.8 0.0
18/08:11pm 19.5 11.7 1.9 31 8.1 SW 32 54 17 29 1014.0 1013.9 0.0
18/08:00pm 19.5 13.5 1.0 29 8.3 SW 22 30 12 16 1013.7 1013.6 0.0
18/07:30pm 20.3 13.0 -0.3 25 9.1 SW 28 44 15 24 1012.8 1012.7 0.0
18/07:25pm 20.7 13.3 -0.6 24 9.4 WSW 28 46 15 25 1012.5 1012.4 0.0
18/07:00pm 22.9 16.0 -6.0 14 11.7 N 22 30 12 16 1011.1 1011.1 0.0
18/06:30pm 23.8 16.5 -6.2 13 12.2 N 24 30 13 16 1011.3 1011.2 0.0
18/06:00pm 24.6 17.3 -6.7 12 12.7 N 24 32 13 17 1011.4 1011.3 0.0
18/05:30pm 24.9 16.7 -7.5 11 13.0 NNW 28 35 15 19 1011.5 1011.4 0.0
18/05:00pm 25.8 16.8 -8.1 10 13.6 NNW 32 46 17 25 1011.4 1011.3 0.0
18/04:30pm 26.0 16.5 -7.9 10 13.6 NNW 35 46 19 25 1011.5 1011.4 0.0
18/04:00pm 26.3 15.9 -9.1 9 14.0 NNW 39 54 21 29 1011.7 1011.6 0.0
18/03:30pm 27.5 17.1 -9.7 8 14.7 N 39 50 21 27 1011.8 1011.7 0.0
18/03:00pm 27.8 18.1 -9.4 8 14.8 NNW 35 54 19 29 1012.0 1011.9 0.0
18/02:30pm 27.1 16.6 -9.9 8 14.5 N 39 50 21 27 1012.6 1012.5 0.0
18/02:23pm 27.7 17.7 -9.5 8 14.8 NNW 37 56 20 30 1012.8 1012.7 0.0
18/02:00pm 27.5 17.1 -9.7 8 14.7 N 39 50 21 27 1013.3 1013.2 0.0
18/01:45pm 26.9 16.5 -8.6 9 14.2 NNW 39 57 21 31 1013.5 1013.4 0.0
18/01:30pm 26.7 15.8 -10.2 8 14.3 N 41 52 22 28 1013.9 1013.8 0.0
18/01:00pm 26.3 16.3 -9.1 9 14.0 NNW 37 50 20 27 1014.6 1014.5 0.0
18/12:30pm 26.0 15.6 -9.3 9 13.8 N 39 50 21 27 1015.3 1015.3 0.0
18/12:00pm 25.0 15.1 -7.5 11 13.0 N 37 52 20 28 1016.2 1016.2 0.0
18/11:30am 24.2 14.7 -7.0 12 12.5 NNW 35 52 19 28 1016.9 1016.9 0.0
18/11:00am 24.0 15.0 -6.1 13 12.3 NNW 33 46 18 25 1017.7 1017.7 0.0
18/10:30am 22.1 13.1 -5.7 15 11.2 N 33 50 18 27 1018.3 1018.3 0.0
18/10:00am 21.2 12.5 -5.6 16 10.7 N 32 43 17 23 1018.6 1018.6 0.0
18/09:30am 19.5 10.8 -4.7 19 9.7 N 32 43 17 23 1019.2 1019.2 0.0
18/09:00am 17.6 10.5 -4.3 22 8.7 N 24 32 13 17 1019.6 1019.6 0.0
18/08:30am 14.7 8.4 -3.6 28 7.2 N 20 26 11 14 1019.8 1019.8 0.0
18/08:00am 11.8 5.5 -3.9 33 5.9 N 20 26 11 14 1019.7 1019.7 0.0
18/07:30am 10.1 3.5 -3.6 38 5.1 NNE 22 28 12 15 1019.5 1019.5 0.0
18/07:00am 8.8 2.6 -3.1 43 4.4 NNE 20 28 11 15 1019.2 1019.2 0.0
18/06:30am 7.6 0.4 -2.4 49 3.7 NNE 26 35 14 19 1019.0 1019.0 0.0
18/06:00am 7.2 1.3 -2.5 50 3.6 NNE 19 24 10 13 1019.3 1019.3 0.0
18/05:30am 8.5 2.0 -2.4 46 4.1 NNE 22 28 12 15 1019.3 1019.3 0.0
18/05:00am 8.7 2.2 -2.6 45 4.2 NNE 22 28 12 15 1019.2 1019.2 0.0
18/04:30am 9.1 2.2 -2.8 43 4.5 NNE 24 30 13 16 1019.4 1019.4 0.0
18/04:00am 9.5 2.6 -2.8 42 4.6 NNE 24 32 13 17 1019.4 1019.4 0.0
18/03:30am 8.9 2.7 -3.3 42 4.5 NNE 20 28 11 15 1019.8 1019.8 0.0
18/03:00am 8.8 2.7 -2.5 45 4.2 NE 20 26 11 14 1019.9 1019.9 0.0
18/02:30am 6.6 1.4 -2.8 51 3.4 NE 15 17 8 9 1020.4 1020.4 0.0
18/02:00am 6.4 1.6 -2.7 52 3.3 NE 13 17 7 9 1020.9 1020.9 0.0
18/01:30am 7.1 2.3 -2.9 49 3.6 NE 13 15 7 8 1021.4 1021.4 0.0
18/01:00am 6.5 2.0 -3.2 50 3.5 NE 11 15 6 8 1021.8 1021.8 0.0
18/12:30am 7.2 2.7 -3.3 47 3.8 NE 11 13 6 7 1022.1 1022.1 0.0
18/12:00am 8.3 4.1 -3.8 42 4.4 NE 9 13 5 7 1022.2 1022.2 0.0
 
Date/Time
EST
Temp
°C
App
Temp
°C
Dew
Point
°C
Rel
Hum
%
Delta-T
°C
Wind Press
QNH
hPa
Press
MSL
hPa
Rain since
9am
mm
Dir  Spd
km/h
Gust
km/h
Spd
kts
Gust
kts
17/11:30pm 8.4 4.1 -4.4 40 4.6 ENE 9 11 5 6 1022.3 1022.3 0.0
17/11:00pm 7.9 3.2 -4.8 40 4.4 ENE 11 13 6 7 1022.4 1022.4 0.0

Other Formats:

Comma delimited format used in spreadsheet applications
http://www.bom.gov.au/fwo/IDN60801/IDN60801.94702.axf

JavaScript Object Notation format (JSON) in row-major order
http://www.bom.gov.au/fwo/IDN60801/IDN60801.94702.json